sensor_id;sensor_type;location;lat;lon;timestamp;pressure;altitude;pressure_sealevel;temperature;humidity
8075;BME280;4080;42.676;23.372;2023-05-09T00:00:50;95384.53;;;13.84;100.00
8075;BME280;4080;42.676;23.372;2023-05-09T00:03:17;95389.28;;;13.87;100.00
8075;BME280;4080;42.676;23.372;2023-05-09T00:05:44;95388.44;;;13.92;100.00
8075;BME280;4080;42.676;23.372;2023-05-09T00:08:11;95391.53;;;13.99;100.00
8075;BME280;4080;42.676;23.372;2023-05-09T00:10:38;95336.66;;;13.71;100.00
8075;BME280;4080;42.676;23.372;2023-05-09T00:13:06;95385.13;;;14.05;100.00
8075;BME280;4080;42.676;23.372;2023-05-09T00:15:33;95389.31;;;14.11;100.00
8075;BME280;4080;42.676;23.372;2023-05-09T00:18:00;95382.66;;;14.14;100.00
8075;BME280;4080;42.676;23.372;2023-05-09T00:20:26;95392.22;;;14.15;100.00
8075;BME280;4080;42.676;23.372;2023-05-09T00:22:53;95390.41;;;14.10;100.00
8075;BME280;4080;42.676;23.372;2023-05-09T00:25:20;95389.91;;;14.08;100.00
8075;BME280;4080;42.676;23.372;2023-05-09T00:27:47;95382.19;;;14.07;100.00
8075;BME280;4080;42.676;23.372;2023-05-09T00:30:15;95381.16;;;14.03;100.00
8075;BME280;4080;42.676;23.372;2023-05-09T00:32:42;95378.22;;;14.04;100.00
8075;BME280;4080;42.676;23.372;2023-05-09T00:35:09;95379.81;;;14.05;100.00
8075;BME280;4080;42.676;23.372;2023-05-09T00:37:36;95371.16;;;13.94;100.00
8075;BME280;4080;42.676;23.372;2023-05-09T00:40:03;95383.53;;;14.04;100.00
8075;BME280;4080;42.676;23.372;2023-05-09T00:42:31;95382.53;;;14.00;100.00
8075;BME280;4080;42.676;23.372;2023-05-09T00:44:58;95381.72;;;13.99;100.00
8075;BME280;4080;42.676;23.372;2023-05-09T00:47:27;95371.69;;;13.96;100.00
8075;BME280;4080;42.676;23.372;2023-05-09T00:49:55;95380.44;;;13.97;100.00
8075;BME280;4080;42.676;23.372;2023-05-09T00:52:24;95371.50;;;13.88;100.00
8075;BME280;4080;42.676;23.372;2023-05-09T00:54:51;95368.56;;;13.89;100.00
8075;BME280;4080;42.676;23.372;2023-05-09T00:57:18;95373.88;;;13.89;100.00
8075;BME280;4080;42.676;23.372;2023-05-09T00:59:45;95348.03;;;13.71;100.00
8075;BME280;4080;42.676;23.372;2023-05-09T01:02:12;95378.66;;;13.87;100.00
8075;BME280;4080;42.676;23.372;2023-05-09T01:04:40;95381.03;;;13.89;100.00
8075;BME280;4080;42.676;23.372;2023-05-09T01:07:11;95375.72;;;13.89;100.00
8075;BME280;4080;42.676;23.372;2023-05-09T01:09:44;95356.28;;;13.70;100.00
8075;BME280;4080;42.676;23.372;2023-05-09T01:12:17;95382.38;;;13.86;100.00
8075;BME280;4080;42.676;23.372;2023-05-09T01:15:00;95377.09;;;13.86;100.00
8075;BME280;4080;42.676;23.372;2023-05-09T01:17:37;95373.66;;;13.86;100.00
8075;BME280;4080;42.676;23.372;2023-05-09T01:20:12;95377.94;;;13.82;100.00
8075;BME280;4080;42.676;23.372;2023-05-09T01:22:45;95366.03;;;13.79;100.00
8075;BME280;4080;42.676;23.372;2023-05-09T01:25:35;95342.50;;;13.67;100.00
8075;BME280;4080;42.676;23.372;2023-05-09T01:28:11;95373.38;;;13.87;100.00
8075;BME280;4080;42.676;23.372;2023-05-09T01:30:41;95377.03;;;13.91;100.00
8075;BME280;4080;42.676;23.372;2023-05-09T01:33:12;95374.38;;;13.91;100.00
8075;BME280;4080;42.676;23.372;2023-05-09T01:35:43;95323.72;;;13.64;100.00
8075;BME280;4080;42.676;23.372;2023-05-09T01:38:16;95371.16;;;13.94;100.00
8075;BME280;4080;42.676;23.372;2023-05-09T01:40:46;95377.53;;;13.93;100.00
8075;BME280;4080;42.676;23.372;2023-05-09T01:43:15;95376.47;;;13.94;100.00
8075;BME280;4080;42.676;23.372;2023-05-09T01:45:45;95370.66;;;13.92;100.00
8075;BME280;4080;42.676;23.372;2023-05-09T01:48:13;95372.25;;;13.93;100.00
8075;BME280;4080;42.676;23.372;2023-05-09T01:50:42;95374.84;;;13.98;100.00
8075;BME280;4080;42.676;23.372;2023-05-09T01:53:10;95378.56;;;13.97;100.00
8075;BME280;4080;42.676;23.372;2023-05-09T01:55:39;95383.63;;;13.94;100.00
8075;BME280;4080;42.676;23.372;2023-05-09T01:58:07;95385.78;;;13.92;100.00
8075;BME280;4080;42.676;23.372;2023-05-09T02:00:35;95387.38;;;13.93;100.00
8075;BME280;4080;42.676;23.372;2023-05-09T02:03:03;95380.25;;;13.88;100.00
8075;BME280;4080;42.676;23.372;2023-05-09T02:05:31;95390.28;;;13.91;100.00
8075;BME280;4080;42.676;23.372;2023-05-09T02:07:58;95383.91;;;13.92;100.00
8075;BME280;4080;42.676;23.372;2023-05-09T02:10:26;95332.75;;;13.63;100.00
8075;BME280;4080;42.676;23.372;2023-05-09T02:12:53;95333.31;;;13.60;100.00
8075;BME280;4080;42.676;23.372;2023-05-09T02:15:20;95382.91;;;13.88;100.00
8075;BME280;4080;42.676;23.372;2023-05-09T02:17:47;95380.81;;;13.85;100.00
8075;BME280;4080;42.676;23.372;2023-05-09T02:20:15;95376.34;;;13.81;100.00
8075;BME280;4080;42.676;23.372;2023-05-09T02:22:42;95371.38;;;13.69;100.00
8075;BME280;4080;42.676;23.372;2023-05-09T02:25:10;95374.78;;;13.75;100.00
8075;BME280;4080;42.676;23.372;2023-05-09T02:27:39;95338.09;;;13.58;100.00
8075;BME280;4080;42.676;23.372;2023-05-09T02:30:08;95370.47;;;13.84;100.00
8075;BME280;4080;42.676;23.372;2023-05-09T02:32:38;95383.97;;;13.87;100.00
8075;BME280;4080;42.676;23.372;2023-05-09T02:35:06;95377.31;;;13.90;100.00
8075;BME280;4080;42.676;23.372;2023-05-09T02:37:35;95373.81;;;13.94;100.00
8075;BME280;4080;42.676;23.372;2023-05-09T02:40:02;95380.94;;;13.99;100.00
8075;BME280;4080;42.676;23.372;2023-05-09T02:42:30;95381.97;;;14.03;100.00
8075;BME280;4080;42.676;23.372;2023-05-09T02:44:57;95363.22;;;13.94;100.00
8075;BME280;4080;42.676;23.372;2023-05-09T02:47:24;95382.19;;;14.07;100.00
8075;BME280;4080;42.676;23.372;2023-05-09T02:49:51;95378.47;;;14.08;100.00
8075;BME280;4080;42.676;23.372;2023-05-09T02:52:17;95388.84;;;14.04;100.00
8075;BME280;4080;42.676;23.372;2023-05-09T02:54:46;95384.09;;;14.01;100.00
8075;BME280;4080;42.676;23.372;2023-05-09T02:57:12;95385.69;;;14.02;100.00
8075;BME280;4080;42.676;23.372;2023-05-09T02:59:39;95388.63;;;14.01;100.00
8075;BME280;4080;42.676;23.372;2023-05-09T03:02:06;95382.78;;;13.98;100.00
8075;BME280;4080;42.676;23.372;2023-05-09T03:04:33;95388.16;;;13.93;100.00
8075;BME280;4080;42.676;23.372;2023-05-09T03:07:00;95389.00;;;13.89;100.00
8075;BME280;4080;42.676;23.372;2023-05-09T03:09:26;95365.91;;;13.60;100.00
8075;BME280;4080;42.676;23.372;2023-05-09T03:11:55;95363.28;;;13.55;100.00
8075;BME280;4080;42.676;23.372;2023-05-09T03:14:22;95385.81;;;13.58;100.00
8075;BME280;4080;42.676;23.372;2023-05-09T03:16:48;95403.75;;;13.66;100.00
8075;BME280;4080;42.676;23.372;2023-05-09T03:19:15;95416.53;;;13.59;100.00
8075;BME280;4080;42.676;23.372;2023-05-09T03:21:42;95413.97;;;13.44;100.00
8075;BME280;4080;42.676;23.372;2023-05-09T03:24:09;95421.38;;;13.47;100.00
8075;BME280;4080;42.676;23.372;2023-05-09T03:26:36;95423.53;;;13.40;100.00
8075;BME280;4080;42.676;23.372;2023-05-09T03:29:04;95387.16;;;13.06;100.00
8075;BME280;4080;42.676;23.372;2023-05-09T03:31:31;95431.81;;;13.33;100.00
8075;BME280;4080;42.676;23.372;2023-05-09T03:33:57;95429.97;;;13.28;100.00
8075;BME280;4080;42.676;23.372;2023-05-09T03:36:24;95436.09;;;13.24;100.00
8075;BME280;4080;42.676;23.372;2023-05-09T03:38:51;95402.56;;;12.99;100.00
8075;BME280;4080;42.676;23.372;2023-05-09T03:41:18;95415.50;;;13.05;100.00
8075;BME280;4080;42.676;23.372;2023-05-09T03:43:45;95441.72;;;13.17;100.00
8075;BME280;4080;42.676;23.372;2023-05-09T03:46:13;95438.75;;;13.14;100.00
8075;BME280;4080;42.676;23.372;2023-05-09T03:48:39;95440.88;;;13.17;100.00
8075;BME280;4080;42.676;23.372;2023-05-09T03:51:06;95437.41;;;13.16;100.00
8075;BME280;4080;42.676;23.372;2023-05-09T03:53:33;95436.38;;;13.12;100.00
8075;BME280;4080;42.676;23.372;2023-05-09T03:55:59;95444.34;;;13.17;100.00
8075;BME280;4080;42.676;23.372;2023-05-09T03:58:26;95437.41;;;13.16;100.00
8075;BME280;4080;42.676;23.372;2023-05-09T04:00:53;95442.75;;;13.11;100.00
8075;BME280;4080;42.676;23.372;2023-05-09T04:03:21;95436.13;;;13.09;100.00
8075;BME280;4080;42.676;23.372;2023-05-09T04:05:48;95441.72;;;13.17;100.00
8075;BME280;4080;42.676;23.372;2023-05-09T04:08:14;95432.88;;;13.32;100.00
8075;BME280;4080;42.676;23.372;2023-05-09T04:10:41;95439.97;;;13.42;100.00
8075;BME280;4080;42.676;23.372;2023-05-09T04:13:08;95438.63;;;13.44;100.00
8075;BME280;4080;42.676;23.372;2023-05-09T04:15:35;95439.91;;;13.47;100.00
8075;BME280;4080;42.676;23.372;2023-05-09T04:18:02;95402.19;;;13.26;100.00
8075;BME280;4080;42.676;23.372;2023-05-09T04:20:30;95437.03;;;13.48;100.00
8075;BME280;4080;42.676;23.372;2023-05-09T04:22:56;95447.47;;;13.68;100.00
8075;BME280;4080;42.676;23.372;2023-05-09T04:25:23;95439.72;;;13.77;100.00
8075;BME280;4080;42.676;23.372;2023-05-09T04:27:50;95447.44;;;14.08;100.00
8075;BME280;4080;42.676;23.372;2023-05-09T04:30:17;95450.66;;;14.34;100.00
8075;BME280;4080;42.676;23.372;2023-05-09T04:32:45;95449.06;;;14.62;100.00
8075;BME280;4080;42.676;23.372;2023-05-09T04:35:13;95459.91;;;14.70;100.00
8075;BME280;4080;42.676;23.372;2023-05-09T04:37:41;95452.66;;;14.76;100.00
8075;BME280;4080;42.676;23.372;2023-05-09T04:40:09;95455.19;;;14.86;100.00
8075;BME280;4080;42.676;23.372;2023-05-09T04:42:36;95459.41;;;15.11;100.00
8075;BME280;4080;42.676;23.372;2023-05-09T04:45:03;95464.25;;;15.28;100.00
8075;BME280;4080;42.676;23.372;2023-05-09T04:47:30;95459.78;;;15.23;100.00
8075;BME280;4080;42.676;23.372;2023-05-09T04:49:57;95456.25;;;15.28;100.00
8075;BME280;4080;42.676;23.372;2023-05-09T04:52:24;95463.44;;;15.27;100.00
8075;BME280;4080;42.676;23.372;2023-05-09T04:54:52;95464.06;;;15.43;100.00
8075;BME280;4080;42.676;23.372;2023-05-09T04:57:19;95467.25;;;15.64;100.00
8075;BME280;4080;42.676;23.372;2023-05-09T04:59:46;95441.56;;;15.54;100.00
8075;BME280;4080;42.676;23.372;2023-05-09T05:02:13;95462.22;;;15.62;100.00
8075;BME280;4080;42.676;23.372;2023-05-09T05:04:39;95464.41;;;15.55;100.00
8075;BME280;4080;42.676;23.372;2023-05-09T05:07:06;95465.47;;;15.54;100.00
8075;BME280;4080;42.676;23.372;2023-05-09T05:09:35;95466.06;;;15.51;100.00
8075;BME280;4080;42.676;23.372;2023-05-09T05:12:04;95467.41;;;15.30;100.00
8075;BME280;4080;42.676;23.372;2023-05-09T05:14:31;95460.34;;;15.20;100.00
8075;BME280;4080;42.676;23.372;2023-05-09T05:16:58;95426.03;;;14.81;100.00
8075;BME280;4080;42.676;23.372;2023-05-09T05:19:25;95458.13;;;14.84;100.00
8075;BME280;4080;42.676;23.372;2023-05-09T05:21:51;95460.56;;;14.81;100.00
8075;BME280;4080;42.676;23.372;2023-05-09T05:24:18;95459.59;;;14.72;100.00
8075;BME280;4080;42.676;23.372;2023-05-09T05:26:45;95458.56;;;14.68;100.00
8075;BME280;4080;42.676;23.372;2023-05-09T05:29:13;95443.09;;;14.51;100.00
8075;BME280;4080;42.676;23.372;2023-05-09T05:31:39;95459.31;;;14.49;100.00
8075;BME280;4080;42.676;23.372;2023-05-09T05:34:06;95455.66;;;14.40;100.00
8075;BME280;4080;42.676;23.372;2023-05-09T05:36:33;95464.13;;;14.42;100.00
8075;BME280;4080;42.676;23.372;2023-05-09T05:39:00;95465.97;;;14.47;100.00
8075;BME280;4080;42.676;23.372;2023-05-09T05:41:27;95469.91;;;14.49;100.00
8075;BME280;4080;42.676;23.372;2023-05-09T05:43:53;95466.19;;;14.50;100.00
8075;BME280;4080;42.676;23.372;2023-05-09T05:46:21;95466.06;;;14.60;100.00
8075;BME280;4080;42.676;23.372;2023-05-09T05:48:48;95474.00;;;14.66;100.00
8075;BME280;4080;42.676;23.372;2023-05-09T05:51:15;95470.78;;;14.69;100.00
8075;BME280;4080;42.676;23.372;2023-05-09T05:53:41;95460.69;;;14.71;100.00
8075;BME280;4080;42.676;23.372;2023-05-09T05:56:08;95463.22;;;14.81;100.00
8075;BME280;4080;42.676;23.372;2023-05-09T05:58:35;95468.41;;;14.91;100.00
8075;BME280;4080;42.676;23.372;2023-05-09T06:01:01;95469.81;;;15.07;100.00
8075;BME280;4080;42.676;23.372;2023-05-09T06:03:29;95472.28;;;15.22;100.00
8075;BME280;4080;42.676;23.372;2023-05-09T06:05:56;95469.13;;;15.20;100.00
8075;BME280;4080;42.676;23.372;2023-05-09T06:08:23;95474.72;;;15.19;100.00
8075;BME280;4080;42.676;23.372;2023-05-09T06:10:50;95476.94;;;15.12;100.00
8075;BME280;4080;42.676;23.372;2023-05-09T06:13:16;95479.47;;;14.98;100.00
8075;BME280;4080;42.676;23.372;2023-05-09T06:15:43;95454.19;;;14.82;100.00
8075;BME280;4080;42.676;23.372;2023-05-09T06:18:10;95479.59;;;14.88;100.00
8075;BME280;4080;42.676;23.372;2023-05-09T06:20:38;95469.31;;;14.81;100.00
8075;BME280;4080;42.676;23.372;2023-05-09T06:23:05;95470.41;;;14.80;100.00
8075;BME280;4080;42.676;23.372;2023-05-09T06:25:31;95473.00;;;14.85;100.00
8075;BME280;4080;42.676;23.372;2023-05-09T06:27:58;95454.69;;;14.84;100.00
8075;BME280;4080;42.676;23.372;2023-05-09T06:30:25;95426.97;;;14.66;100.00
8075;BME280;4080;42.676;23.372;2023-05-09T06:32:51;95476.28;;;15.01;100.00
8075;BME280;4080;42.676;23.372;2023-05-09T06:35:18;95470.25;;;15.14;100.00
8075;BME280;4080;42.676;23.372;2023-05-09T06:37:46;95470.34;;;15.28;100.00
8075;BME280;4080;42.676;23.372;2023-05-09T06:40:13;95483.00;;;15.36;100.00
8075;BME280;4080;42.676;23.372;2023-05-09T06:42:39;95476.34;;;15.39;100.00
8075;BME280;4080;42.676;23.372;2023-05-09T06:45:07;95470.44;;;15.42;100.00
8075;BME280;4080;42.676;23.372;2023-05-09T06:47:34;95477.38;;;15.62;100.00
8075;BME280;4080;42.676;23.372;2023-05-09T06:50:00;95458.59;;;15.53;100.00
8075;BME280;4080;42.676;23.372;2023-05-09T06:52:27;95480.34;;;15.55;100.00
8075;BME280;4080;42.676;23.372;2023-05-09T06:54:55;95488.47;;;15.45;100.00
8075;BME280;4080;42.676;23.372;2023-05-09T06:57:22;95482.44;;;15.39;100.00
8075;BME280;4080;42.676;23.372;2023-05-09T06:59:48;95478.81;;;15.30;100.00
8075;BME280;4080;42.676;23.372;2023-05-09T07:02:15;95475.94;;;15.27;100.00
8075;BME280;4080;42.676;23.372;2023-05-09T07:04:42;95476.34;;;15.39;100.00
8075;BME280;4080;42.676;23.372;2023-05-09T07:07:08;95464.84;;;15.43;100.00
8075;BME280;4080;42.676;23.372;2023-05-09T07:09:35;95469.06;;;15.44;100.00
8075;BME280;4080;42.676;23.372;2023-05-09T07:12:04;95471.44;;;15.46;100.00
8075;BME280;4080;42.676;23.372;2023-05-09T07:14:31;95470.72;;;15.40;100.00
8075;BME280;4080;42.676;23.372;2023-05-09T07:16:57;95473.50;;;15.30;100.00
8075;BME280;4080;42.676;23.372;2023-05-09T07:19:24;95469.25;;;15.29;100.00
8075;BME280;4080;42.676;23.372;2023-05-09T07:21:51;95482.34;;;15.26;100.00
8075;BME280;4080;42.676;23.372;2023-05-09T07:24:17;95475.66;;;15.28;100.00
8075;BME280;4080;42.676;23.372;2023-05-09T07:26:44;95482.34;;;15.26;100.00
8075;BME280;4080;42.676;23.372;2023-05-09T07:29:12;95485.22;;;15.29;100.00
8075;BME280;4080;42.676;23.372;2023-05-09T07:31:57;95469.00;;;15.31;100.00
8075;BME280;4080;42.676;23.372;2023-05-09T07:34:24;95463.34;;;15.37;100.00
8075;BME280;4080;42.676;23.372;2023-05-09T07:36:51;95472.97;;;15.52;100.00
8075;BME280;4080;42.676;23.372;2023-05-09T07:39:18;95469.13;;;15.63;100.00
8075;BME280;4080;42.676;23.372;2023-05-09T07:41:44;95460.13;;;15.59;100.00
8075;BME280;4080;42.676;23.372;2023-05-09T07:44:12;95484.03;;;15.59;100.00
8075;BME280;4080;42.676;23.372;2023-05-09T07:46:39;95480.44;;;15.50;100.00
8075;BME280;4080;42.676;23.372;2023-05-09T07:49:06;95479.34;;;15.51;100.00
8075;BME280;4080;42.676;23.372;2023-05-09T07:51:33;95474.19;;;15.60;100.00
8075;BME280;4080;42.676;23.372;2023-05-09T07:54:00;95461.03;;;15.49;100.00
8075;BME280;4080;42.676;23.372;2023-05-09T07:56:26;95490.44;;;15.58;100.00
8075;BME280;4080;42.676;23.372;2023-05-09T07:58:53;95482.00;;;15.51;100.00
8075;BME280;4080;42.676;23.372;2023-05-09T08:01:21;95436.28;;;15.11;100.00
8075;BME280;4080;42.676;23.372;2023-05-09T08:03:48;95481.44;;;15.35;100.00
8075;BME280;4080;42.676;23.372;2023-05-09T08:06:14;95471.59;;;15.36;100.00
8075;BME280;4080;42.676;23.372;2023-05-09T08:08:41;95466.41;;;15.44;100.00
8075;BME280;4080;42.676;23.372;2023-05-09T08:11:08;95474.53;;;15.53;100.00
8075;BME280;4080;42.676;23.372;2023-05-09T08:13:35;95476.63;;;15.56;100.00
8075;BME280;4080;42.676;23.372;2023-05-09T08:16:01;95459.22;;;15.45;100.00
8075;BME280;4080;42.676;23.372;2023-05-09T08:18:29;95476.31;;;15.63;100.00
8075;BME280;4080;42.676;23.372;2023-05-09T08:20:56;95481.63;;;15.63;100.00
8075;BME280;4080;42.676;23.372;2023-05-09T08:23:24;95482.09;;;15.83;100.00
8075;BME280;4080;42.676;23.372;2023-05-09T08:25:52;95471.19;;;16.18;100.00
8075;BME280;4080;42.676;23.372;2023-05-09T08:28:18;95438.13;;;16.37;100.00
8075;BME280;4080;42.676;23.372;2023-05-09T08:30:46;95485.59;;;16.95;100.00
8075;BME280;4080;42.676;23.372;2023-05-09T08:33:13;95482.41;;;17.21;100.00
8075;BME280;4080;42.676;23.372;2023-05-09T08:35:41;95490.97;;;17.59;100.00
8075;BME280;4080;42.676;23.372;2023-05-09T08:38:07;95493.44;;;17.55;100.00
8075;BME280;4080;42.676;23.372;2023-05-09T08:40:34;95488.88;;;17.56;100.00
8075;BME280;4080;42.676;23.372;2023-05-09T08:43:02;95500.75;;;17.50;100.00
8075;BME280;4080;42.676;23.372;2023-05-09T08:45:30;95486.34;;;17.37;100.00
8075;BME280;4080;42.676;23.372;2023-05-09T08:48:01;95479.00;;;17.70;100.00
8075;BME280;4080;42.676;23.372;2023-05-09T08:50:28;95473.44;;;17.66;100.00
8075;BME280;4080;42.676;23.372;2023-05-09T08:52:56;95475.22;;;17.71;100.00
8075;BME280;4080;42.676;23.372;2023-05-09T08:55:23;95475.94;;;17.77;100.00
8075;BME280;4080;42.676;23.372;2023-05-09T08:57:51;95483.53;;;17.83;100.00
8075;BME280;4080;42.676;23.372;2023-05-09T09:00:18;95481.91;;;18.41;100.00
8075;BME280;4080;42.676;23.372;2023-05-09T09:02:46;95478.03;;;18.78;100.00
8075;BME280;4080;42.676;23.372;2023-05-09T09:05:13;95473.75;;;19.08;100.00
8075;BME280;4080;42.676;23.372;2023-05-09T09:07:59;95471.56;;;19.18;100.00
8075;BME280;4080;42.676;23.372;2023-05-09T09:10:28;95479.34;;;18.98;100.00
8075;BME280;4080;42.676;23.372;2023-05-09T09:12:58;95440.94;;;18.54;100.00
8075;BME280;4080;42.676;23.372;2023-05-09T09:15:27;95483.84;;;18.80;100.00
8075;BME280;4080;42.676;23.372;2023-05-09T09:17:58;95473.03;;;18.93;100.00
8075;BME280;4080;42.676;23.372;2023-05-09T09:20:26;95468.31;;;18.90;100.00
8075;BME280;4080;42.676;23.372;2023-05-09T09:22:58;95452.06;;;18.70;100.00
8075;BME280;4080;42.676;23.372;2023-05-09T09:25:27;95483.75;;;18.63;100.00
8075;BME280;4080;42.676;23.372;2023-05-09T09:27:54;95482.50;;;17.93;100.00
8075;BME280;4080;42.676;23.372;2023-05-09T09:30:23;95477.00;;;17.62;100.00
8075;BME280;4080;42.676;23.372;2023-05-09T09:32:50;95485.09;;;17.21;100.00
8075;BME280;4080;42.676;23.372;2023-05-09T09:35:17;95491.91;;;16.99;100.00
8075;BME280;4080;42.676;23.372;2023-05-09T09:37:44;95476.47;;;16.83;100.00
8075;BME280;4080;42.676;23.372;2023-05-09T09:40:12;95469.38;;;16.78;100.00
8075;BME280;4080;42.676;23.372;2023-05-09T09:42:44;95486.75;;;16.75;100.00
8075;BME280;4080;42.676;23.372;2023-05-09T09:45:12;95447.41;;;16.40;100.00
8075;BME280;4080;42.676;23.372;2023-05-09T09:47:40;95474.28;;;16.57;100.00
8075;BME280;4080;42.676;23.372;2023-05-09T09:50:09;95470.41;;;16.50;100.00
8075;BME280;4080;42.676;23.372;2023-05-09T09:52:41;95476.81;;;16.49;100.00
8075;BME280;4080;42.676;23.372;2023-05-09T09:55:08;95483.78;;;16.44;100.00
8075;BME280;4080;42.676;23.372;2023-05-09T09:57:35;95469.59;;;16.35;100.00
8075;BME280;4080;42.676;23.372;2023-05-09T10:00:05;95480.94;;;16.41;100.00
8075;BME280;4080;42.676;23.372;2023-05-09T10:02:32;95474.53;;;16.42;100.00
8075;BME280;4080;42.676;23.372;2023-05-09T10:05:05;95463.78;;;16.47;100.00
8075;BME280;4080;42.676;23.372;2023-05-09T10:07:33;95437.97;;;16.15;100.00
8075;BME280;4080;42.676;23.372;2023-05-09T10:10:00;95458.75;;;16.45;100.00
8075;BME280;4080;42.676;23.372;2023-05-09T10:12:32;95467.69;;;16.82;100.00
8075;BME280;4080;42.676;23.372;2023-05-09T10:15:01;95481.03;;;17.10;100.00
8075;BME280;4080;42.676;23.372;2023-05-09T10:17:31;95468.00;;;17.22;100.00
8075;BME280;4080;42.676;23.372;2023-05-09T10:19:59;95471.06;;;17.15;100.00
8075;BME280;4080;42.676;23.372;2023-05-09T10:22:27;95469.13;;;17.43;100.00
8075;BME280;4080;42.676;23.372;2023-05-09T10:25:01;95464.22;;;17.36;100.00
8075;BME280;4080;42.676;23.372;2023-05-09T10:27:30;95487.50;;;17.58;100.00
8075;BME280;4080;42.676;23.372;2023-05-09T10:30:02;95462.59;;;17.63;100.00
8075;BME280;4080;42.676;23.372;2023-05-09T10:32:38;95456.50;;;17.49;100.00
8075;BME280;4080;42.676;23.372;2023-05-09T10:35:09;95454.00;;;17.16;100.00
8075;BME280;4080;42.676;23.372;2023-05-09T10:37:38;95463.38;;;16.86;100.00
8075;BME280;4080;42.676;23.372;2023-05-09T10:40:06;95461.34;;;16.64;100.00
8075;BME280;4080;42.676;23.372;2023-05-09T10:42:33;95460.03;;;16.48;100.00
8075;BME280;4080;42.676;23.372;2023-05-09T10:45:01;95458.09;;;16.54;100.00
8075;BME280;4080;42.676;23.372;2023-05-09T10:47:28;95467.72;;;16.36;100.00
8075;BME280;4080;42.676;23.372;2023-05-09T10:49:58;95459.03;;;16.30;100.00
8075;BME280;4080;42.676;23.372;2023-05-09T10:52:30;95454.63;;;16.07;100.00
8075;BME280;4080;42.676;23.372;2023-05-09T10:54:58;95467.63;;;16.08;100.00
8075;BME280;4080;42.676;23.372;2023-05-09T10:57:26;95471.97;;;16.04;100.00
8075;BME280;4080;42.676;23.372;2023-05-09T10:59:54;95457.28;;;15.88;100.00
8075;BME280;4080;42.676;23.372;2023-05-09T11:02:21;95452.63;;;15.99;100.00
8075;BME280;4080;42.676;23.372;2023-05-09T11:05:18;95463.47;;;16.02;100.00
8075;BME280;4080;42.676;23.372;2023-05-09T11:07:45;95462.09;;;16.05;100.00
8075;BME280;4080;42.676;23.372;2023-05-09T11:10:14;95462.09;;;16.05;100.00
8075;BME280;4080;42.676;23.372;2023-05-09T11:12:55;95464.19;;;16.08;100.00
8075;BME280;4080;42.676;23.372;2023-05-09T11:15:21;95458.19;;;16.16;100.00
8075;BME280;4080;42.676;23.372;2023-05-09T11:17:50;95457.19;;;16.12;100.00
8075;BME280;4080;42.676;23.372;2023-05-09T11:20:26;95457.88;;;16.04;100.00
8075;BME280;4080;42.676;23.372;2023-05-09T11:22:56;95475.06;;;15.93;100.00
8075;BME280;4080;42.676;23.372;2023-05-09T11:25:24;95466.81;;;15.94;100.00
8075;BME280;4080;42.676;23.372;2023-05-09T11:27:57;95478.75;;;15.97;100.00
8075;BME280;4080;42.676;23.372;2023-05-09T11:30:34;95473.06;;;15.66;100.00
8075;BME280;4080;42.676;23.372;2023-05-09T11:33:01;95468.09;;;15.59;100.00
8075;BME280;4080;42.676;23.372;2023-05-09T11:35:36;95409.22;;;15.09;100.00
8075;BME280;4080;42.676;23.372;2023-05-09T11:38:04;95453.28;;;15.34;100.00
8075;BME280;4080;42.676;23.372;2023-05-09T11:40:32;95474.97;;;15.41;100.00
8075;BME280;4080;42.676;23.372;2023-05-09T11:42:59;95463.91;;;15.34;100.00
8075;BME280;4080;42.676;23.372;2023-05-09T11:45:28;95450.63;;;15.34;100.00
8075;BME280;4080;42.676;23.372;2023-05-09T11:47:55;95461.38;;;15.43;100.00
8075;BME280;4080;42.676;23.372;2023-05-09T11:50:22;95469.66;;;15.41;100.00
8075;BME280;4080;42.676;23.372;2023-05-09T11:52:50;95435.94;;;15.18;100.00
8075;BME280;4080;42.676;23.372;2023-05-09T11:55:18;95472.59;;;15.40;100.00
8075;BME280;4080;42.676;23.372;2023-05-09T11:57:47;95466.59;;;15.29;100.00
8075;BME280;4080;42.676;23.372;2023-05-09T12:00:16;95461.53;;;15.33;100.00
8075;BME280;4080;42.676;23.372;2023-05-09T12:02:43;95455.72;;;15.49;100.00
8075;BME280;4080;42.676;23.372;2023-05-09T12:05:12;95457.91;;;15.66;100.00
8075;BME280;4080;42.676;23.372;2023-05-09T12:07:40;95455.66;;;15.73;100.00
8075;BME280;4080;42.676;23.372;2023-05-09T12:10:13;95457.69;;;15.63;100.00
8075;BME280;4080;42.676;23.372;2023-05-09T12:12:44;95457.00;;;15.52;100.00
8075;BME280;4080;42.676;23.372;2023-05-09T12:15:12;95405.34;;;15.02;100.00
8075;BME280;4080;42.676;23.372;2023-05-09T12:17:39;95434.22;;;15.08;100.00
8075;BME280;4080;42.676;23.372;2023-05-09T12:20:07;95454.31;;;15.14;100.00
8075;BME280;4080;42.676;23.372;2023-05-09T12:22:34;95460.22;;;15.11;100.00
8075;BME280;4080;42.676;23.372;2023-05-09T12:25:05;95408.59;;;14.75;100.00
8075;BME280;4080;42.676;23.372;2023-05-09T12:27:33;95465.38;;;14.79;100.00
8075;BME280;4080;42.676;23.372;2023-05-09T12:30:01;95445.63;;;14.61;100.00
8075;BME280;4080;42.676;23.372;2023-05-09T12:32:28;95448.63;;;14.54;100.00
8075;BME280;4080;42.676;23.372;2023-05-09T12:34:57;95456.75;;;14.34;100.00
8075;BME280;4080;42.676;23.372;2023-05-09T12:37:32;95457.38;;;14.26;100.00
8075;BME280;4080;42.676;23.372;2023-05-09T12:40:00;95452.78;;;14.03;100.00
8075;BME280;4080;42.676;23.372;2023-05-09T12:42:28;95449.34;;;14.02;100.00
8075;BME280;4080;42.676;23.372;2023-05-09T12:44:55;95466.13;;;13.92;100.00
8075;BME280;4080;42.676;23.372;2023-05-09T12:47:25;95457.72;;;13.85;100.00
8075;BME280;4080;42.676;23.372;2023-05-09T12:49:52;95472.13;;;13.69;100.00
8075;BME280;4080;42.676;23.372;2023-05-09T12:52:19;95443.09;;;13.54;100.00
8075;BME280;4080;42.676;23.372;2023-05-09T12:54:47;95449.44;;;13.53;100.00
8075;BME280;4080;42.676;23.372;2023-05-09T12:57:21;95444.78;;;13.34;100.00
8075;BME280;4080;42.676;23.372;2023-05-09T12:59:48;95440.53;;;13.33;100.00
8075;BME280;4080;42.676;23.372;2023-05-09T13:02:15;95457.06;;;13.20;100.00
8075;BME280;4080;42.676;23.372;2023-05-09T13:04:43;95440.13;;;13.06;100.00